Time;durP1;ratioP1;P1;durP2;ratioP2;P2;SDS_P1;SDS_P2;PMS_P1;PMS_P2;Temp;Humidity;BMP_temperature;BMP_pressure;BME280_temperature;BME280_humidity;BME280_pressure;Samples;Min_cycle;Max_cycle;Signal;HPM_P1;HPM_P2
2021/08/30 00:02:04;;;;;;;2.33;1.60;;;;;;;14.89;88.27;99721.39;1362394;90;21313;-85
2021/08/30 00:04:31;;;;;;;3.67;1.50;;;;;;;14.95;88.01;99724.31;1362013;90;22202;-85
2021/08/30 00:07:00;;;;;;;4.57;2.00;;;;;;;14.90;88.55;99726.20;1362042;90;21302;-85
2021/08/30 00:09:27;;;;;;;4.53;1.50;;;;;;;14.83;89.07;99726.16;1361900;90;21227;-85
2021/08/30 00:11:54;;;;;;;1.77;1.53;;;;;;;14.79;88.66;99722.25;1361869;91;21385;-85
2021/08/30 00:14:22;;;;;;;1.93;1.63;;;;;;;14.78;88.21;99723.24;1342721;92;21915;-85
2021/08/30 00:16:49;;;;;;;3.50;1.83;;;;;;;14.78;88.65;99726.42;1361965;90;21368;-85
2021/08/30 00:19:16;;;;;;;2.67;1.63;;;;;;;14.83;88.58;99732.00;1362381;90;22403;-85
2021/08/30 00:21:44;;;;;;;4.23;2.20;;;;;;;14.86;88.49;99748.94;1328621;93;21545;-85
2021/08/30 00:24:11;;;;;;;2.83;1.70;;;;;;;14.90;87.97;99755.52;1352730;90;21516;-84
2021/08/30 00:26:38;;;;;;;5.63;2.73;;;;;;;14.93;87.57;99759.13;1361881;90;21600;-84
2021/08/30 00:29:05;;;;;;;3.23;1.90;;;;;;;14.98;87.20;99762.55;1361730;90;21514;-84
2021/08/30 00:31:32;;;;;;;2.27;1.80;;;;;;;15.02;86.97;99766.50;1361291;91;22272;-85
2021/08/30 00:33:59;;;;;;;4.83;1.90;;;;;;;15.03;87.67;99765.48;1360711;90;21553;-85
2021/08/30 00:36:26;;;;;;;2.20;1.77;;;;;;;15.03;87.00;99769.47;1361324;90;21346;-84
2021/08/30 00:38:54;;;;;;;2.80;1.60;;;;;;;15.03;86.81;99772.95;1361523;90;21414;-84
2021/08/30 00:41:23;;;;;;;5.13;1.60;;;;;;;15.05;86.60;99776.27;1337325;92;21369;-85
2021/08/30 00:43:50;;;;;;;6.53;2.10;;;;;;;15.05;86.52;99776.77;1334347;92;22792;-84
2021/08/30 00:46:18;;;;;;;3.83;2.10;;;;;;;15.06;86.22;99782.41;1351930;91;21325;-84
2021/08/30 00:48:49;;;;;;;1.70;1.60;;;;;;;15.05;85.97;99778.11;1351834;91;21251;-84
2021/08/30 00:51:19;;;;;;;3.57;2.03;;;;;;;15.04;85.79;99779.10;1352080;91;21473;-84
2021/08/30 00:53:49;;;;;;;2.85;1.90;;;;;;;15.01;85.64;99779.48;1352726;90;22403;-85
2021/08/30 00:56:18;;;;;;;4.33;2.00;;;;;;;14.99;85.61;99781.52;1352097;91;21583;-85
2021/08/30 00:58:45;;;;;;;1.97;1.80;;;;;;;14.99;85.37;99785.03;1352270;90;21509;-84
2021/08/30 01:01:13;;;;;;;4.80;2.17;;;;;;;14.96;85.69;99782.75;1352161;90;21435;-85
2021/08/30 01:03:40;;;;;;;5.67;2.33;;;;;;;14.92;86.58;99781.47;1352741;91;21465;-85
2021/08/30 01:06:43;;;;;;;4.10;1.60;;;;;;;14.93;85.90;99785.77;1352080;90;22330;-85
2021/08/30 01:09:31;;;;;;;3.47;1.70;;;;;;;14.93;85.67;99776.95;1352030;91;21606;-85
2021/08/30 01:12:15;;;;;;;4.53;2.10;;;;;;;14.95;85.30;99788.25;1351825;91;21369;-86
2021/08/30 01:15:06;;;;;;;2.53;1.83;;;;;;;14.96;85.22;99789.89;1351897;91;22930;-86
2021/08/30 01:17:36;;;;;;;2.52;1.52;;;;;;;14.97;85.24;99786.23;1352190;90;21435;-86
2021/08/30 01:20:20;;;;;;;2.27;1.82;;;;;;;14.99;85.25;99786.84;1352221;91;22318;-86
2021/08/30 01:22:49;;;;;;;5.53;2.07;;;;;;;14.96;85.12;99784.08;1352923;91;21354;-86
2021/08/30 01:25:21;;;;;;;2.97;2.03;;;;;;;14.87;86.11;99786.05;1352391;90;21251;-86
2021/08/30 01:27:50;;;;;;;1.83;1.70;;;;;;;14.86;85.46;99787.05;1351862;91;21664;-85
2021/08/30 01:30:23;;;;;;;2.50;2.30;;;;;;;14.82;85.46;99779.13;1351922;91;22453;-85
2021/08/30 01:32:57;;;;;;;2.80;1.93;;;;;;;14.83;85.19;99783.44;1351794;91;22139;-85
2021/08/30 01:35:27;;;;;;;3.07;1.80;;;;;;;14.83;85.15;99783.44;1355375;90;21525;-85
2021/08/30 01:37:59;;;;;;;5.07;1.93;;;;;;;14.81;84.88;99789.45;1355332;91;22690;-86
2021/08/30 01:40:30;;;;;;;2.00;1.80;;;;;;;14.78;84.86;99789.84;1354714;90;21509;-86
2021/08/30 01:43:00;;;;;;;1.83;1.67;;;;;;;14.73;84.74;99786.95;1338493;93;21287;-85
2021/08/30 01:45:32;;;;;;;2.90;2.23;;;;;;;14.74;84.86;99796.57;1356330;90;21250;-85
2021/08/30 01:48:04;;;;;;;2.90;2.53;;;;;;;14.76;84.89;99791.03;1350491;91;21288;-85
2021/08/30 01:50:33;;;;;;;2.10;1.63;;;;;;;14.75;84.96;99792.88;1362427;90;22292;-85
2021/08/30 01:53:04;;;;;;;2.73;2.07;;;;;;;14.75;84.87;99800.88;1362229;90;22254;-85
2021/08/30 01:55:46;;;;;;;1.93;1.73;;;;;;;14.73;85.20;99797.59;1361855;92;21356;-85
2021/08/30 02:00:49;;;;;;;2.57;1.83;;;;;;;14.68;84.92;99796.00;1361968;90;22418;-85
2021/08/30 02:03:25;;;;;;;2.87;2.07;;;;;;;14.64;84.91;99804.03;1361611;90;21287;-85
2021/08/30 02:06:04;;;;;;;3.00;1.90;;;;;;;14.58;85.14;99804.80;1361912;90;21471;-85
2021/08/30 02:08:34;;;;;;;3.07;2.00;;;;;;;14.53;85.54;99801.38;1361428;91;21308;-86
2021/08/30 02:11:10;;;;;;;2.52;1.77;;;;;;;14.51;85.88;99798.55;1362570;91;21279;-85
2021/08/30 02:13:36;;;;;;;3.17;2.33;;;;;;;14.44;85.74;99800.64;1333585;92;21739;-85
2021/08/30 02:16:04;;;;;;;3.10;2.27;;;;;;;14.41;86.26;99799.69;1361856;90;22899;-85
2021/08/30 02:18:57;;;;;;;4.63;2.77;;;;;;;14.39;86.34;99795.05;1362207;91;22225;-86
2021/08/30 02:21:39;;;;;;;3.53;2.20;;;;;;;14.36;86.97;99791.44;1361654;91;21494;-87
2021/08/30 02:24:31;;;;;;;2.47;1.73;;;;;;;14.31;87.08;99796.48;1361592;91;21395;-86
2021/08/30 02:27:22;;;;;;;2.50;1.90;;;;;;;14.29;87.53;99799.02;1347190;91;21454;-85
2021/08/30 02:29:55;;;;;;;5.20;1.80;;;;;;;14.31;87.09;99798.33;1349527;91;21466;-85
2021/08/30 02:32:23;;;;;;;4.93;2.13;;;;;;;14.34;87.16;99794.78;1352132;91;21441;-85
2021/08/30 02:34:55;;;;;;;2.73;2.20;;;;;;;14.38;87.06;99797.38;1345571;92;21578;-86
2021/08/30 02:37:24;;;;;;;2.30;2.10;;;;;;;14.41;86.99;99795.70;1361826;90;21368;-86
2021/08/30 02:39:53;;;;;;;4.33;1.97;;;;;;;14.45;86.88;99802.28;1343565;91;21478;-86
2021/08/30 02:42:21;;;;;;;5.00;2.27;;;;;;;14.45;86.72;99799.62;1325180;93;21434;-86
2021/08/30 02:44:49;;;;;;;5.20;2.20;;;;;;;14.45;87.03;99799.62;1357176;91;22778;-86
2021/08/30 02:47:19;;;;;;;3.53;2.03;;;;;;;14.49;86.65;99801.91;1355567;91;21653;-85
2021/08/30 02:49:47;;;;;;;2.50;1.90;;;;;;;14.51;86.55;99798.55;1355511;91;21295;-86
2021/08/30 02:52:17;;;;;;;3.43;2.20;;;;;;;14.53;86.33;99801.86;1355555;91;21399;-85
2021/08/30 02:54:47;;;;;;;5.75;2.40;;;;;;;14.56;86.54;99802.84;1355826;91;22374;-85
2021/08/30 02:57:14;;;;;;;4.97;2.93;;;;;;;14.53;87.34;99799.20;1355594;91;21339;-86
2021/08/30 02:59:41;;;;;;;4.07;2.50;;;;;;;14.55;86.45;99802.00;1355579;91;22443;-86
2021/08/30 03:02:10;;;;;;;7.80;2.17;;;;;;;14.58;86.44;99800.29;1355310;91;21250;-87
2021/08/30 03:04:38;;;;;;;4.53;2.73;;;;;;;14.57;86.43;99789.33;1355390;91;21295;-86
2021/08/30 03:07:07;;;;;;;6.63;2.93;;;;;;;14.56;86.34;99789.53;1355974;91;21420;-86
2021/08/30 03:09:34;;;;;;;6.67;2.30;;;;;;;14.55;86.54;99782.54;1355388;91;21295;-85
2021/08/30 03:12:03;;;;;;;4.87;2.43;;;;;;;14.52;86.44;99781.08;1332866;92;21502;-87
2021/08/30 03:14:31;;;;;;;2.93;2.17;;;;;;;14.49;86.87;99783.27;1318593;95;21526;-87
2021/08/30 03:17:06;;;;;;;3.60;2.80;;;;;;;14.45;86.95;99783.64;1356174;91;21369;-87
2021/08/30 03:19:34;;;;;;;4.90;2.70;;;;;;;14.41;86.63;99785.53;1354902;91;22242;-86
2021/08/30 03:22:02;;;;;;;4.43;2.87;;;;;;;14.34;87.20;99787.30;1337917;92;21407;-87
2021/08/30 03:24:30;;;;;;;5.90;2.70;;;;;;;14.31;87.23;99790.34;1337644;92;23115;-86
2021/08/30 03:26:59;;;;;;;2.90;2.53;;;;;;;14.28;88.59;99795.53;1332767;92;22330;-86
2021/08/30 03:29:27;;;;;;;5.33;3.17;;;;;;;14.28;88.14;99790.21;1354967;91;21337;-87
2021/08/30 03:31:55;;;;;;;6.37;3.10;;;;;;;14.28;88.37;99795.53;1343650;91;21315;-87
2021/08/30 03:34:23;;;;;;;3.70;3.17;;;;;;;14.25;88.73;99790.59;1343314;92;21286;-87
2021/08/30 03:36:51;;;;;;;6.97;3.17;;;;;;;14.25;88.94;99792.43;1343414;92;21434;-86
2021/08/30 03:39:19;;;;;;;10.50;3.30;;;;;;;14.24;89.28;99795.57;1355987;91;21302;-86
2021/08/30 03:41:50;;;;;;;4.90;3.00;;;;;;;14.21;89.15;99793.28;1321697;94;21370;-86
2021/08/30 03:44:19;;;;;;;5.03;3.03;;;;;;;14.17;90.21;99798.16;1337061;92;21514;-87
2021/08/30 03:46:47;;;;;;;4.47;2.87;;;;;;;14.12;90.15;99797.89;1343402;92;21333;-87
2021/08/30 03:49:15;;;;;;;5.27;3.67;;;;;;;14.13;89.58;99797.41;1359663;90;22336;-87
2021/08/30 03:51:43;;;;;;;5.00;2.87;;;;;;;14.11;89.29;99800.75;1359153;90;22159;-87
2021/08/30 03:54:10;;;;;;;3.87;2.60;;;;;;;14.10;89.52;99801.27;1344964;92;21287;-87
2021/08/30 03:56:41;;;;;;;6.27;3.40;;;;;;;14.13;89.40;99806.72;1363036;90;21383;-87
2021/08/30 03:59:09;;;;;;;5.67;3.70;;;;;;;14.15;89.23;99811.33;1343243;92;22195;-86
2021/08/30 04:01:42;;;;;;;5.90;3.40;;;;;;;14.18;89.10;99802.49;1356134;91;22269;-86
2021/08/30 04:04:14;;;;;;;5.83;3.45;;;;;;;14.23;88.91;99815.22;1344188;92;21346;-85
2021/08/30 04:06:38;;;;;;;5.40;3.43;;;;;;;14.27;88.83;99813.86;1344300;93;22284;-86
2021/08/30 04:09:05;;;;;;;4.33;3.10;;;;;;;14.33;89.13;99825.09;1344825;92;22189;-86
2021/08/30 04:11:32;;;;;;;6.63;3.37;;;;;;;14.40;88.74;99817.98;1362645;90;21293;-86
2021/08/30 04:14:00;;;;;;;5.00;3.67;;;;;;;14.44;88.57;99817.95;1362280;90;21323;-86
2021/08/30 04:16:27;;;;;;;8.07;2.93;;;;;;;14.44;88.58;99811.30;1362216;90;22321;-86
2021/08/30 04:18:54;;;;;;;3.83;3.13;;;;;;;14.48;88.35;99813.58;1344727;92;21561;-86
2021/08/30 04:21:21;;;;;;;5.87;4.23;;;;;;;14.55;88.28;99817.16;1362081;90;21302;-86
2021/08/30 04:23:48;;;;;;;4.73;3.47;;;;;;;14.56;88.30;99821.48;1362807;90;21323;-86
2021/08/30 04:26:15;;;;;;;4.20;3.23;;;;;;;14.56;88.00;99820.16;1362574;90;22339;-86
2021/08/30 04:28:43;;;;;;;4.10;3.23;;;;;;;14.58;87.90;99828.25;1324081;94;21450;-86
2021/08/30 04:31:10;;;;;;;7.43;3.17;;;;;;;14.60;87.94;99830.73;1319978;93;21348;-86
2021/08/30 04:33:37;;;;;;;4.53;3.63;;;;;;;14.60;87.92;99828.89;1349429;91;22190;-86
2021/08/30 04:36:05;;;;;;;5.33;3.60;;;;;;;14.63;88.05;99835.69;1334605;93;21560;-86
2021/08/30 04:38:34;;;;;;;3.63;3.30;;;;;;;14.64;87.76;99835.99;1344960;90;21339;-86
2021/08/30 04:41:02;;;;;;;7.63;3.33;;;;;;;14.66;87.84;99835.30;1361628;91;21418;-87
2021/08/30 04:43:29;;;;;;;9.40;3.17;;;;;;;14.73;87.80;99837.55;1361705;89;22874;-86
2021/08/30 04:45:56;;;;;;;4.37;3.23;;;;;;;14.79;87.85;99838.64;1309386;94;21472;-86
2021/08/30 04:48:24;;;;;;;7.50;3.23;;;;;;;14.82;87.69;99840.41;1362312;91;22337;-86
2021/08/30 04:50:51;;;;;;;6.50;3.23;;;;;;;14.84;87.48;99838.36;1362705;90;21310;-86
2021/08/30 04:53:18;;;;;;;7.30;3.50;;;;;;;14.87;87.31;99844.66;1362661;90;21368;-87
2021/08/30 04:55:46;;;;;;;7.23;3.50;;;;;;;14.89;87.05;99844.45;1343460;92;22284;-86
2021/08/30 04:58:13;;;;;;;4.93;3.10;;;;;;;14.86;87.15;99839.00;1362672;90;21530;-87
2021/08/30 05:00:40;;;;;;;4.87;3.43;;;;;;;14.88;86.96;99841.48;1362814;90;22270;-87
2021/08/30 05:03:07;;;;;;;13.70;4.57;;;;;;;14.87;87.13;99846.00;1362494;91;21264;-86
2021/08/30 05:05:34;;;;;;;7.60;3.47;;;;;;;14.91;87.04;99843.77;1341993;92;21332;-86
2021/08/30 05:08:02;;;;;;;3.43;3.13;;;;;;;14.97;87.10;99844.34;1349775;90;22741;-86
2021/08/30 05:10:29;;;;;;;6.23;3.80;;;;;;;15.01;87.04;99846.11;1334337;93;21295;-86
2021/08/30 05:12:56;;;;;;;5.93;3.17;;;;;;;14.97;87.16;99848.34;1350505;90;22535;-86
2021/08/30 05:15:24;;;;;;;7.40;3.50;;;;;;;14.98;86.95;99850.48;1322377;93;21325;-86
2021/08/30 05:17:52;;;;;;;6.53;2.83;;;;;;;14.94;86.65;99849.23;1343321;92;21384;-87
2021/08/30 05:20:19;;;;;;;3.87;2.97;;;;;;;14.86;86.57;99853.65;1330173;93;21393;-86
2021/08/30 05:22:46;;;;;;;3.90;3.00;;;;;;;14.83;86.40;99849.22;1335799;93;21384;-85
2021/08/30 05:25:13;;;;;;;4.10;3.07;;;;;;;14.80;86.32;99851.75;1348413;92;22249;-85
2021/08/30 05:27:41;;;;;;;3.60;2.77;;;;;;;14.81;86.71;99849.39;1337042;93;21362;-84
2021/08/30 05:30:09;;;;;;;4.20;3.30;;;;;;;14.83;86.47;99852.70;1313776;93;21361;-85
2021/08/30 05:32:36;;;;;;;3.20;2.80;;;;;;;14.91;86.48;99848.28;1344710;91;21310;-85
2021/08/30 05:35:04;;;;;;;4.83;2.97;;;;;;;14.99;86.42;99857.45;1344153;92;22263;-84
2021/08/30 05:37:31;;;;;;;3.20;2.90;;;;;;;15.05;86.04;99851.39;1344391;92;21482;-84
2021/08/30 05:39:58;;;;;;;3.93;3.30;;;;;;;15.10;85.96;99846.29;1344097;92;21453;-84
2021/08/30 05:42:26;;;;;;;5.83;2.60;;;;;;;15.26;85.91;99843.37;1354657;90;21353;-84
2021/08/30 05:44:53;;;;;;;3.33;2.43;;;;;;;15.38;85.43;99844.18;1363759;90;21386;-85
2021/08/30 05:47:22;;;;;;;3.00;2.70;;;;;;;15.49;85.21;99839.14;1363909;90;21265;-85
2021/08/30 05:49:49;;;;;;;6.33;2.60;;;;;;;15.50;83.45;99842.63;1363874;90;21317;-84
2021/08/30 05:52:17;;;;;;;4.67;2.60;;;;;;;15.48;84.19;99843.34;1345064;92;21435;-85
2021/08/30 05:54:44;;;;;;;3.80;2.60;;;;;;;15.50;84.03;99844.78;1324323;93;21289;-84
2021/08/30 05:57:11;;;;;;;6.73;2.63;;;;;;;15.54;84.05;99843.39;1347853;92;21280;-85
2021/08/30 05:59:38;;;;;;;3.90;2.40;;;;;;;15.52;84.05;99844.59;1347949;92;21318;-84
2021/08/30 06:02:05;;;;;;;6.60;3.43;;;;;;;15.49;83.68;99846.32;1334327;93;21273;-85
2021/08/30 06:04:32;;;;;;;5.63;3.10;;;;;;;15.40;83.95;99844.82;1347959;91;21303;-84
2021/08/30 06:07:00;;;;;;;2.60;2.40;;;;;;;15.31;84.02;99842.80;1348035;91;22159;-84
2021/08/30 06:09:29;;;;;;;7.27;2.60;;;;;;;15.26;84.03;99845.22;1348494;91;22257;-84
2021/08/30 06:11:57;;;;;;;3.80;2.60;;;;;;;15.20;84.79;99845.47;1348290;91;22227;-84
2021/08/30 06:14:24;;;;;;;2.80;2.27;;;;;;;15.23;84.60;99845.59;1348276;92;22169;-84
2021/08/30 06:16:51;;;;;;;4.17;2.77;;;;;;;15.22;84.78;99846.11;1348021;91;21317;-85
2021/08/30 06:19:18;;;;;;;2.87;2.60;;;;;;;15.20;84.94;99840.14;1348218;92;22212;-85
2021/08/30 06:21:46;;;;;;;3.10;2.70;;;;;;;15.17;84.82;99841.04;1348197;92;21326;-85
2021/08/30 06:24:13;;;;;;;6.90;3.43;;;;;;;15.15;85.13;99841.22;1334466;92;21414;-85
2021/08/30 06:26:40;;;;;;;11.80;3.07;;;;;;;15.16;85.10;99842.85;1348251;91;21621;-85
2021/08/30 06:29:07;;;;;;;5.17;3.50;;;;;;;15.19;85.52;99839.84;1348025;91;22271;-85
2021/08/30 06:31:34;;;;;;;7.33;3.07;;;;;;;15.19;85.10;99845.17;1348585;92;21310;-85
2021/08/30 06:34:03;;;;;;;4.43;2.97;;;;;;;15.17;85.36;99837.86;1347935;92;21229;-84
2021/08/30 06:36:30;;;;;;;4.50;3.17;;;;;;;15.14;84.89;99840.09;1348329;91;21428;-85
2021/08/30 06:38:57;;;;;;;6.53;2.53;;;;;;;15.14;85.10;99838.25;1359013;92;21386;-85
2021/08/30 06:41:24;;;;;;;4.27;3.20;;;;;;;15.14;84.72;99842.25;1348080;92;21547;-85
2021/08/30 06:43:52;;;;;;;3.90;2.87;;;;;;;15.13;85.36;99844.57;1334274;92;22464;-85
2021/08/30 06:46:19;;;;;;;5.40;2.60;;;;;;;15.11;85.51;99846.63;1334262;93;21303;-86
2021/08/30 06:48:46;;;;;;;2.97;2.67;;;;;;;15.10;85.26;99850.29;1334506;93;22270;-85
2021/08/30 06:51:13;;;;;;;5.27;3.23;;;;;;;15.10;85.68;99851.62;1334052;93;21377;-85
2021/08/30 06:53:41;;;;;;;3.63;2.83;;;;;;;15.11;85.71;99851.95;1348237;91;21391;-85
2021/08/30 06:56:08;;;;;;;7.17;3.07;;;;;;;15.12;85.54;99845.59;1348315;91;21462;-85
2021/08/30 06:58:35;;;;;;;3.47;3.03;;;;;;;15.20;85.68;99861.47;1347975;91;22260;-85
2021/08/30 07:01:03;;;;;;;4.33;2.80;;;;;;;15.25;85.60;99850.23;1348208;91;21340;-85
2021/08/30 07:03:30;;;;;;;3.77;3.20;;;;;;;15.31;85.59;99851.63;1348011;91;21355;-85
2021/08/30 07:05:57;;;;;;;4.33;3.10;;;;;;;15.38;85.39;99853.52;1348137;91;22169;-86
2021/08/30 07:08:24;;;;;;;7.83;3.10;;;;;;;15.35;85.59;99852.88;1348323;91;21406;-85
2021/08/30 07:10:51;;;;;;;3.50;2.93;;;;;;;15.38;85.12;99856.17;1347903;91;22279;-85
2021/08/30 07:13:18;;;;;;;4.60;3.53;;;;;;;15.41;85.19;99854.45;1348218;92;21436;-86
2021/08/30 07:15:47;;;;;;;4.07;2.77;;;;;;;15.43;85.10;99854.59;1348058;92;21288;-86
2021/08/30 07:18:16;;;;;;;5.57;3.13;;;;;;;15.44;85.20;99859.41;1348464;91;21289;-85
2021/08/30 07:20:43;;;;;;;3.47;2.90;;;;;;;15.41;85.00;99862.45;1347797;92;21355;-85
2021/08/30 07:23:11;;;;;;;3.40;2.83;;;;;;;15.50;84.74;99863.96;1347883;91;21362;-85
2021/08/30 07:25:38;;;;;;;5.50;3.17;;;;;;;15.46;84.51;99866.71;1348484;92;21339;-88
2021/08/30 07:28:06;;;;;;;3.67;3.00;;;;;;;15.44;84.60;99868.22;1348127;91;21478;-88
2021/08/30 07:30:33;;;;;;;4.97;3.60;;;;;;;15.50;84.85;99862.63;1348279;91;21469;-88
2021/08/30 07:33:01;;;;;;;7.17;4.37;;;;;;;15.54;84.84;99867.91;1348659;91;21251;-89
2021/08/30 07:35:28;;;;;;;4.40;2.97;;;;;;;15.55;84.38;99870.87;1348359;91;21331;-88
2021/08/30 07:38:01;;;;;;;16.30;5.10;;;;;;;15.53;84.34;99871.58;1348300;92;22449;-88
2021/08/30 07:40:29;;;;;;;5.23;4.30;;;;;;;15.55;84.44;99869.55;1348012;91;22175;-88
2021/08/30 07:42:56;;;;;;;3.90;3.50;;;;;;;15.66;84.65;99870.86;1349466;91;22284;-88
2021/08/30 07:45:23;;;;;;;8.93;4.63;;;;;;;15.79;84.46;99878.98;1349777;90;21281;-88
2021/08/30 07:47:50;;;;;;;4.60;3.40;;;;;;;15.89;83.74;99870.13;1357351;90;21318;-88
2021/08/30 07:50:19;;;;;;;7.17;3.87;;;;;;;15.97;83.57;99867.83;1342107;91;21279;-89
2021/08/30 07:52:46;;;;;;;7.60;4.23;;;;;;;15.97;82.45;99875.83;1354788;91;22751;-88
2021/08/30 07:55:14;;;;;;;5.57;3.93;;;;;;;16.02;82.11;99881.38;1363043;91;21465;-88
2021/08/30 07:57:42;;;;;;;9.67;4.07;;;;;;;16.04;81.75;99884.69;1348112;92;21294;-89
2021/08/30 08:00:12;;;;;;;4.13;3.23;;;;;;;16.11;81.80;99881.56;1363190;91;22247;-90
2021/08/30 08:02:40;;;;;;;5.97;4.30;;;;;;;16.16;81.59;99881.77;1362892;91;21420;-89
2021/08/30 08:05:08;;;;;;;4.57;3.67;;;;;;;16.20;81.12;99880.38;1362818;90;21383;-90
2021/08/30 08:07:48;;;;;;;3.77;3.30;;;;;;;16.22;79.80;99888.98;1362753;90;21346;-88
2021/08/30 08:10:15;;;;;;;5.80;3.47;;;;;;;16.29;79.73;99898.91;1325194;93;21636;-89
2021/08/30 08:12:42;;;;;;;5.03;3.83;;;;;;;16.49;79.96;99892.33;1347257;91;21369;-90
2021/08/30 08:15:10;;;;;;;4.90;3.50;;;;;;;16.73;80.09;99896.31;1334100;92;21238;-90
2021/08/30 08:17:37;;;;;;;10.73;4.03;;;;;;;16.97;78.60;99901.13;1345321;93;21491;-90
2021/08/30 08:20:06;;;;;;;5.17;3.43;;;;;;;17.19;78.54;99894.29;1350384;91;22000;-90
2021/08/30 08:22:34;;;;;;;3.33;2.97;;;;;;;17.37;78.04;99895.84;1349713;91;21244;-90
2021/08/30 08:25:05;;;;;;;3.90;2.62;;;;;;;17.43;74.97;99896.35;1349754;91;21296;-89
2021/08/30 08:27:34;;;;;;;3.80;2.87;;;;;;;17.55;75.08;99898.74;1347078;90;21442;-89
2021/08/30 08:30:01;;;;;;;3.95;2.72;;;;;;;17.74;75.38;99897.07;1362444;90;21265;-90
2021/08/30 08:32:29;;;;;;;11.57;3.60;;;;;;;17.85;73.88;99894.32;1347794;92;21468;-91
2021/08/30 08:34:56;;;;;;;3.50;3.02;;;;;;;17.80;72.87;99895.45;1342912;92;21592;-89
2021/08/30 08:37:23;;;;;;;2.45;2.25;;;;;;;17.71;72.92;99898.01;1362044;90;21361;-89
2021/08/30 08:39:50;;;;;;;2.70;2.50;;;;;;;17.77;73.59;99893.16;1343503;92;21412;-89
2021/08/30 08:42:18;;;;;;;5.45;2.65;;;;;;;17.71;73.60;99896.67;1362659;90;21361;-89
2021/08/30 08:44:48;;;;;;;6.12;2.35;;;;;;;17.64;73.92;99904.71;1333010;92;23293;-89
2021/08/30 08:47:16;;;;;;;2.95;2.75;;;;;;;17.53;73.61;99906.14;1352143;90;21325;-89
2021/08/30 08:49:50;;;;;;;2.92;2.30;;;;;;;17.43;73.28;99909.73;1320908;92;21451;-89
2021/08/30 08:52:13;;;;;;;5.70;3.08;;;;;;;17.33;73.48;99906.65;1334472;92;22344;-90
2021/08/30 08:54:41;;;;;;;3.33;3.03;;;;;;;17.12;73.33;99912.48;1351154;91;21333;-89
2021/08/30 08:57:09;;;;;;;8.40;3.20;;;;;;;16.95;74.11;99907.72;1334371;93;21376;-90
2021/08/30 08:59:38;;;;;;;5.50;3.33;;;;;;;16.80;74.82;99911.87;1352126;91;21258;-90
2021/08/30 09:02:07;;;;;;;3.63;3.03;;;;;;;16.68;75.52;99912.41;1353090;91;21340;-89
2021/08/30 09:04:36;;;;;;;6.87;3.83;;;;;;;16.66;75.76;99911.81;1352029;91;21348;-89
2021/08/30 09:07:12;;;;;;;3.27;2.90;;;;;;;16.65;75.65;99911.47;1352427;91;21302;-92
2021/08/30 09:09:41;;;;;;;3.53;3.20;;;;;;;16.78;75.38;99915.27;1352880;91;21362;-88
2021/08/30 09:12:20;;;;;;;4.97;3.83;;;;;;;16.87;75.34;99906.86;1352077;90;22124;-90
2021/08/30 09:14:48;;;;;;;3.67;2.67;;;;;;;16.95;74.90;99909.87;1334600;92;21347;-89
2021/08/30 09:17:15;;;;;;;10.13;2.77;;;;;;;17.06;73.95;99911.96;1352078;91;22711;-90
2021/08/30 09:19:43;;;;;;;9.37;3.37;;;;;;;17.14;73.09;99906.40;1352559;91;21494;-89
2021/08/30 09:22:11;;;;;;;3.33;2.93;;;;;;;17.27;72.85;99908.80;1345869;90;22209;-89
2021/08/30 09:24:40;;;;;;;5.50;3.27;;;;;;;17.37;71.57;99905.20;1341664;91;21455;-90
2021/08/30 09:27:11;;;;;;;3.43;2.90;;;;;;;17.36;71.24;99905.72;1326762;93;21563;-90
2021/08/30 09:29:41;;;;;;;4.13;2.53;;;;;;;17.38;71.82;99906.87;1340126;92;21556;-89
2021/08/30 09:32:17;;;;;;;4.60;2.70;;;;;;;17.34;71.05;99904.27;1341320;92;22368;-90
2021/08/30 09:34:48;;;;;;;4.63;3.00;;;;;;;17.29;71.29;99906.73;1348330;91;21465;-89
2021/08/30 09:37:19;;;;;;;3.50;3.20;;;;;;;17.22;71.26;99904.58;1330862;92;22297;-90
2021/08/30 09:39:49;;;;;;;5.70;2.40;;;;;;;17.23;71.46;99908.89;1316008;93;21370;-90
2021/08/30 09:42:17;;;;;;;3.27;2.97;;;;;;;17.26;71.70;99912.48;1311833;94;21304;-90
2021/08/30 09:44:45;;;;;;;3.50;3.20;;;;;;;17.19;70.66;99903.65;1311744;94;21369;-90
2021/08/30 09:47:17;;;;;;;7.10;3.80;;;;;;;17.21;71.20;99902.42;1310242;93;21558;-91
2021/08/30 09:49:52;;;;;;;7.43;3.57;;;;;;;17.21;71.45;99907.77;1310314;94;21400;-90
2021/08/30 09:52:22;;;;;;;3.20;2.80;;;;;;;17.18;71.09;99912.70;1311248;94;21470;-90
2021/08/30 09:54:50;;;;;;;3.90;3.57;;;;;;;17.10;71.61;99911.04;1310408;95;21557;-91
2021/08/30 09:57:18;;;;;;;4.80;4.20;;;;;;;17.09;72.50;99918.23;1311010;94;21511;-90
2021/08/30 09:59:46;;;;;;;5.23;3.67;;;;;;;17.09;73.28;99914.23;1338152;92;21468;-90
2021/08/30 10:02:17;;;;;;;3.97;3.57;;;;;;;17.14;73.71;99917.61;1337664;92;22322;-90
2021/08/30 10:04:45;;;;;;;5.92;3.75;;;;;;;16.96;73.66;99914.19;1309315;95;22523;-90
2021/08/30 10:07:14;;;;;;;5.00;4.50;;;;;;;16.80;74.44;99922.07;1336096;92;22360;-90
2021/08/30 10:09:42;;;;;;;4.87;4.47;;;;;;;16.70;74.22;99920.23;1326099;94;22292;-92
2021/08/30 10:12:09;;;;;;;4.27;3.90;;;;;;;16.65;74.33;99926.17;1277348;98;21355;-91
2021/08/30 10:14:37;;;;;;;6.07;4.53;;;;;;;16.55;73.94;99920.39;1338175;93;21422;-87
2021/08/30 10:17:05;;;;;;;6.40;4.50;;;;;;;16.52;74.30;99918.63;1337911;92;21302;-89
2021/08/30 10:19:39;;;;;;;5.03;4.53;;;;;;;16.58;74.74;99925.33;1337660;92;21516;-89
2021/08/30 10:22:19;;;;;;;6.23;5.53;;;;;;;16.54;74.07;99916.56;1346128;94;21263;-89
2021/08/30 10:24:49;;;;;;;8.47;6.00;;;;;;;16.65;74.60;99924.02;1374797;90;21428;-88
2021/08/30 10:27:33;;;;;;;6.90;6.30;;;;;;;16.87;74.42;99918.08;1374588;90;21473;-88
2021/08/30 10:30:11;;;;;;;6.73;6.10;;;;;;;17.08;73.55;99921.92;1359887;91;21447;-89
2021/08/30 10:37:38;;;;;;;7.00;6.30;;;;;;;17.28;73.01;99929.16;1366254;87;21710;-89
2021/08/30 10:40:21;;;;;;;;;;;;;;;;;;;;;
2021/08/30 10:43:00;;;;;;;6.67;6.08;;;;;;;18.00;69.81;99916.33;1363850;89;21327;-87
2021/08/30 10:45:44;;;;;;;6.53;5.92;;;;;;;18.37;69.21;99915.31;1369073;89;22117;-88
2021/08/30 10:48:16;;;;;;;8.58;6.92;;;;;;;18.56;67.18;99912.27;1348635;91;21268;-88
2021/08/30 10:50:51;;;;;;;9.90;5.75;;;;;;;18.63;67.48;99917.59;1366399;90;22421;-91
2021/08/30 10:53:24;;;;;;;8.08;6.05;;;;;;;18.68;66.20;99916.45;1372223;89;22323;-89
2021/08/30 10:55:58;;;;;;;5.97;4.78;;;;;;;18.77;66.27;99917.87;1353945;91;21363;-88
2021/08/30 10:58:27;;;;;;;6.08;5.53;;;;;;;18.76;65.63;99919.41;1357434;90;21319;-88
2021/08/30 11:00:57;;;;;;;7.40;5.47;;;;;;;18.66;64.78;99918.51;1374913;89;21282;-91
2021/08/30 11:03:31;;;;;;;6.90;5.25;;;;;;;18.69;65.55;99922.10;1386175;89;21407;-90
2021/08/30 11:06:12;;;;;;;5.75;5.05;;;;;;;18.74;65.41;99929.03;1374534;89;22185;-93
2021/08/30 11:08:41;;;;;;;5.42;4.78;;;;;;;18.71;63.92;99929.42;1375160;89;21438;-91
2021/08/30 11:11:24;;;;;;;4.47;4.03;;;;;;;18.75;64.74;99921.80;1374649;89;21326;-91
2021/08/30 11:14:09;;;;;;;5.35;4.40;;;;;;;18.69;63.03;99924.26;1374256;89;22125;-90
2021/08/30 11:16:39;;;;;;;4.20;3.80;;;;;;;18.84;64.00;99922.67;1355130;91;22259;-91
2021/08/30 11:19:14;;;;;;;6.47;4.27;;;;;;;18.91;64.41;99930.18;1375291;89;21519;-91
2021/08/30 11:21:52;;;;;;;4.97;3.95;;;;;;;18.83;63.53;99930.42;1374374;89;21267;-91
2021/08/30 11:24:43;;;;;;;6.45;5.12;;;;;;;18.66;63.12;99935.41;1374437;89;21297;-90
2021/08/30 11:27:21;;;;;;;5.08;4.58;;;;;;;18.53;63.58;99933.29;1359932;90;21238;-90
2021/08/30 11:30:01;;;;;;;7.60;4.90;;;;;;;18.56;64.21;99935.05;1374458;90;21452;-91
2021/08/30 11:32:32;;;;;;;5.53;4.97;;;;;;;18.59;63.93;99933.81;1374329;89;21341;-91
2021/08/30 11:35:00;;;;;;;5.37;4.87;;;;;;;18.53;63.81;99935.97;1375393;89;22214;-93
2021/08/30 11:37:31;;;;;;;5.72;5.15;;;;;;;18.41;63.55;99940.67;1373423;89;21349;-91
2021/08/30 11:40:01;;;;;;;9.78;4.20;;;;;;;18.28;64.26;99938.02;1360379;91;21488;-91
2021/08/30 11:42:32;;;;;;;6.40;4.67;;;;;;;18.26;64.56;99942.75;1370950;89;22313;-93
2021/08/30 11:45:03;;;;;;;5.33;4.87;;;;;;;18.27;64.64;99949.77;1355208;90;21282;-91
2021/08/30 11:47:31;;;;;;;6.40;4.72;;;;;;;18.29;65.42;99941.51;1325970;93;21284;-90
2021/08/30 11:50:10;;;;;;;6.47;4.62;;;;;;;18.43;65.56;99941.26;1329096;93;21268;-90
2021/08/30 11:52:39;;;;;;;5.58;5.08;;;;;;;18.56;65.58;99940.41;1354839;91;22132;-93
2021/08/30 11:55:13;;;;;;;6.30;4.40;;;;;;;18.50;64.91;99942.60;1332823;93;22282;-92